Time;durP1;ratioP1;P1;durP2;ratioP2;P2;SDS_P1;SDS_P2;PMS_P1;PMS_P2;Temp;Humidity;BMP_temperature;BMP_pressure;BME280_temperature;BME280_humidity;BME280_pressure;Samples;Min_cycle;Max_cycle;Signal;HPM_P1;HPM_P2
2022/05/23 00:02:25;;;;;;;;;;;;;;;13.56;49.83;100407.84;4942230;28;97832;-68
2022/05/23 00:04:51;;;;;;;;;;;;;;;13.50;49.95;100407.91;4949008;28;127550;-68
2022/05/23 00:07:23;;;;;;;;;;;;;;;13.46;50.22;100406.88;4958863;28;124065;-68
2022/05/23 00:09:50;;;;;;;;;;;;;;;13.43;50.16;100410.16;4958015;28;98582;-68
2022/05/23 00:12:16;;;;;;;;;;;;;;;13.42;49.92;100410.44;4958098;28;112025;-68
2022/05/23 00:14:43;;;;;;;;;;;;;;;13.41;50.49;100408.84;4941595;28;129045;-66
2022/05/23 00:17:10;;;;;;;;;;;;;;;13.36;50.40;100408.88;4961181;28;98084;-70
2022/05/23 00:19:36;;;;;;;;;;;;;;;13.33;50.69;100404.06;4958283;28;98320;-62
2022/05/23 00:22:02;;;;;;;;;;;;;;;13.30;50.79;100410.03;4950811;28;123289;-62
2022/05/23 00:24:28;;;;;;;;;;;;;;;13.25;50.71;100398.16;4939551;28;111856;-62
2022/05/23 00:26:54;;;;;;;;;;;;;;;13.21;50.90;100401.72;4940036;28;128384;-62
2022/05/23 00:29:19;;;;;;;;;;;;;;;13.18;50.89;100399.56;4941412;28;98197;-69
2022/05/23 00:37:15;;;;;;;;;;;;;;;13.13;51.24;100391.50;4937099;28;98125;-62
2022/05/23 00:39:41;;;;;;;;;;;;;;;13.10;51.37;100384.75;4939147;28;127641;-68
2022/05/23 00:44:55;;;;;;;;;;;;;;;13.05;51.52;100368.59;4946348;28;98190;-69
2022/05/23 00:47:22;;;;;;;;;;;;;;;13.02;51.77;100369.94;4957873;28;98447;-62
2022/05/23 00:49:48;;;;;;;;;;;;;;;12.98;51.74;100360.78;4939732;28;98279;-62
2022/05/23 00:52:27;;;;;;;;;;;;;;;12.95;51.87;100355.94;4949210;28;123140;-69
2022/05/23 00:54:55;;;;;;;;;;;;;;;12.91;51.80;100352.19;4937477;28;128293;-67
2022/05/23 00:57:23;;;;;;;;;;;;;;;12.89;52.11;100346.28;4940382;28;98289;-62
2022/05/23 00:59:49;;;;;;;;;;;;;;;12.87;52.14;100342.25;4936823;28;126657;-68
2022/05/23 01:02:14;;;;;;;;;;;;;;;12.85;51.90;100345.25;4948397;28;109410;-68
2022/05/23 01:04:41;;;;;;;;;;;;;;;12.83;51.97;100342.00;4953062;28;125057;-62
2022/05/23 01:07:07;;;;;;;;;;;;;;;12.84;52.08;100334.69;4940904;28;98665;-62
2022/05/23 01:09:33;;;;;;;;;;;;;;;12.83;52.21;100335.78;4939547;28;98256;-69
2022/05/23 01:11:59;;;;;;;;;;;;;;;12.81;52.29;100336.09;4960979;28;122446;-62
2022/05/23 01:14:26;;;;;;;;;;;;;;;12.78;52.08;100340.16;4955106;28;126871;-62
2022/05/23 01:16:52;;;;;;;;;;;;;;;12.77;52.26;100335.84;4958938;28;98355;-69
2022/05/23 01:19:17;;;;;;;;;;;;;;;12.75;52.30;100343.41;4951619;28;126541;-69
2022/05/23 01:21:58;;;;;;;;;;;;;;;12.71;52.34;100334.25;4938457;28;123258;-62
2022/05/23 01:24:45;;;;;;;;;;;;;;;12.68;52.76;100334.03;4938286;28;128428;-69
2022/05/23 01:27:11;;;;;;;;;;;;;;;12.62;52.71;100333.28;4922136;28;98238;-62
2022/05/23 01:29:37;;;;;;;;;;;;;;;12.60;52.83;100351.66;4952671;28;127574;-62
2022/05/23 01:32:03;;;;;;;;;;;;;;;12.65;52.42;100331.88;4940444;28;98269;-69
2022/05/23 01:34:29;;;;;;;;;;;;;;;12.74;52.62;100331.00;4938926;28;97902;-69
2022/05/23 01:36:55;;;;;;;;;;;;;;;12.82;52.39;100326.88;4939064;28;128023;-69
2022/05/23 01:39:21;;;;;;;;;;;;;;;12.86;52.45;100333.31;4942649;28;126703;-68
2022/05/23 01:41:47;;;;;;;;;;;;;;;12.87;52.33;100332.22;4938985;28;121368;-69
2022/05/23 01:44:13;;;;;;;;;;;;;;;12.87;52.41;100331.41;4941708;28;127493;-62
2022/05/23 01:46:38;;;;;;;;;;;;;;;12.87;52.42;100326.81;4956693;28;128630;-68
2022/05/23 01:49:04;;;;;;;;;;;;;;;12.88;52.22;100320.31;4949678;28;128194;-69
2022/05/23 01:51:30;;;;;;;;;;;;;;;12.89;52.43;100316.53;4958216;28;122690;-62
2022/05/23 01:53:56;;;;;;;;;;;;;;;12.93;52.26;100322.97;4956815;28;127681;-63
2022/05/23 01:56:22;;;;;;;;;;;;;;;12.96;52.25;100313.47;4957868;28;126569;-64
2022/05/23 02:01:32;;;;;;;;;;;;;;;12.99;52.22;100305.56;4938432;28;97719;-67
2022/05/23 02:03:58;;;;;;;;;;;;;;;13.03;52.27;100301.19;4942294;28;126275;-62
2022/05/23 02:06:24;;;;;;;;;;;;;;;13.06;52.29;100302.53;4942132;28;128158;-62
2022/05/23 02:08:50;;;;;;;;;;;;;;;13.07;52.28;100317.69;4946442;28;124461;-62
2022/05/23 02:11:16;;;;;;;;;;;;;;;13.09;52.26;100318.22;4941639;28;123631;-68
2022/05/23 02:13:43;;;;;;;;;;;;;;;13.09;52.17;100322.81;4943497;28;98332;-62
2022/05/23 02:16:09;;;;;;;;;;;;;;;13.09;52.13;100312.00;4942196;28;99071;-68
2022/05/23 02:18:35;;;;;;;;;;;;;;;13.09;52.35;100314.69;4957581;28;128105;-68
2022/05/23 02:21:01;;;;;;;;;;;;;;;13.09;52.37;100317.41;4942786;28;121418;-63
2022/05/23 02:23:27;;;;;;;;;;;;;;;13.08;52.29;100322.00;4941838;28;110717;-70
2022/05/23 02:25:53;;;;;;;;;;;;;;;13.07;52.61;100325.78;4958679;28;98051;-68
2022/05/23 02:28:19;;;;;;;;;;;;;;;13.06;52.31;100320.69;4960579;28;127835;-69
2022/05/23 02:30:48;;;;;;;;;;;;;;;13.03;52.52;100320.16;4959588;28;122719;-62
2022/05/23 02:33:14;;;;;;;;;;;;;;;13.00;52.58;100320.72;4962077;28;124033;-62
2022/05/23 02:35:40;;;;;;;;;;;;;;;12.97;52.50;100315.91;4961322;28;111397;-68
2022/05/23 02:38:06;;;;;;;;;;;;;;;12.96;52.77;100316.16;4960784;28;125758;-62
2022/05/23 02:40:32;;;;;;;;;;;;;;;12.92;52.63;100318.63;4939130;28;123355;-70
2022/05/23 02:42:58;;;;;;;;;;;;;;;12.90;52.71;100320.84;4957342;28;113346;-70
2022/05/23 02:45:24;;;;;;;;;;;;;;;12.88;52.72;100312.19;4954594;28;105894;-69
2022/05/23 02:47:51;;;;;;;;;;;;;;;12.85;52.80;100320.91;4960867;28;126214;-70
2022/05/23 02:50:17;;;;;;;;;;;;;;;12.78;52.91;100315.81;4950785;28;97963;-69
2022/05/23 02:52:44;;;;;;;;;;;;;;;12.70;53.00;100319.13;4956727;28;127720;-68
2022/05/23 02:55:10;;;;;;;;;;;;;;;12.63;52.98;100310.53;4961391;28;98377;-69
2022/05/23 02:57:36;;;;;;;;;;;;;;;12.58;53.23;100307.91;4961440;28;101695;-63
2022/05/23 03:00:03;;;;;;;;;;;;;;;12.52;53.02;100303.59;4961096;28;123654;-62
2022/05/23 03:05:14;;;;;;;;;;;;;;;12.36;53.21;100302.94;4941453;28;98317;-69
2022/05/23 03:07:40;;;;;;;;;;;;;;;12.29;53.34;100302.44;4941612;28;117030;-61
2022/05/23 03:10:06;;;;;;;;;;;;;;;12.26;53.43;100311.09;4940622;28;123529;-68
2022/05/23 03:12:34;;;;;;;;;;;;;;;12.22;53.78;100308.19;4953178;28;113460;-62
2022/05/23 03:15:00;;;;;;;;;;;;;;;12.18;53.31;100304.44;4961454;28;98246;-62
2022/05/23 03:17:26;;;;;;;;;;;;;;;12.16;53.89;100295.78;4953584;28;122475;-70
2022/05/23 03:19:52;;;;;;;;;;;;;;;12.15;53.52;100296.88;4942129;28;99328;-62
2022/05/23 03:27:47;;;;;;;;;;;;;;;12.18;53.37;100290.94;4938268;28;97809;-68
2022/05/23 03:30:13;;;;;;;;;;;;;;;12.19;53.70;100303.34;4939989;28;121272;-62
2022/05/23 03:32:39;;;;;;;;;;;;;;;12.21;53.62;100298.44;4952378;28;129802;-62
2022/05/23 03:35:07;;;;;;;;;;;;;;;12.25;53.52;100302.19;4940646;28;98469;-62
2022/05/23 03:37:33;;;;;;;;;;;;;;;12.29;53.15;100305.16;4956151;28;98150;-62
2022/05/23 03:40:00;;;;;;;;;;;;;;;12.31;53.51;100294.88;4944724;28;121816;-62
2022/05/23 03:42:26;;;;;;;;;;;;;;;12.34;53.49;100301.59;4951735;28;126467;-62
2022/05/23 03:44:52;;;;;;;;;;;;;;;12.35;53.58;100312.13;4949248;28;128062;-62
2022/05/23 03:47:18;;;;;;;;;;;;;;;12.31;54.04;100329.22;4951484;28;128269;-69
2022/05/23 03:49:44;;;;;;;;;;;;;;;12.28;53.78;100333.25;4940381;28;124167;-63
2022/05/23 03:52:10;;;;;;;;;;;;;;;12.26;53.74;100325.44;4952114;28;98360;-62
2022/05/23 03:54:36;;;;;;;;;;;;;;;12.28;53.95;100330.56;4939949;28;115147;-62
2022/05/23 03:57:03;;;;;;;;;;;;;;;12.29;53.91;100324.06;4946152;28;102242;-67
2022/05/23 03:59:29;;;;;;;;;;;;;;;12.33;53.89;100330.53;4959603;28;115025;-68
2022/05/23 04:01:56;;;;;;;;;;;;;;;12.36;53.83;100313.75;4953058;28;128115;-69
2022/05/23 04:04:23;;;;;;;;;;;;;;;12.42;53.37;100312.63;4941091;28;98730;-63
2022/05/23 04:06:49;;;;;;;;;;;;;;;12.48;53.58;100316.09;4941205;28;102863;-61
2022/05/23 04:09:15;;;;;;;;;;;;;;;12.51;53.37;100308.22;4943818;28;121853;-62
2022/05/23 04:11:41;;;;;;;;;;;;;;;12.60;53.74;100315.72;4955316;28;127563;-69
2022/05/23 04:14:07;;;;;;;;;;;;;;;12.65;53.43;100316.47;4939555;28;128041;-62
2022/05/23 04:16:33;;;;;;;;;;;;;;;12.72;53.38;100313.44;4940589;28;98219;-67
2022/05/23 04:18:58;;;;;;;;;;;;;;;12.78;53.24;100313.09;4940164;28;122783;-62
2022/05/23 04:21:24;;;;;;;;;;;;;;;12.86;53.32;100310.88;4941078;28;127492;-62
2022/05/23 04:23:50;;;;;;;;;;;;;;;12.93;53.20;100311.31;4939533;28;128344;-67
2022/05/23 04:26:16;;;;;;;;;;;;;;;13.00;53.11;100312.59;4939502;28;126440;-62
2022/05/23 04:28:42;;;;;;;;;;;;;;;13.09;53.04;100312.78;4949340;28;122631;-69
2022/05/23 04:31:08;;;;;;;;;;;;;;;13.17;52.89;100319.47;4958796;28;128444;-67
2022/05/23 04:36:19;;;;;;;;;;;;;;;13.27;52.79;100322.09;4936549;28;97859;-62
2022/05/23 04:38:45;;;;;;;;;;;;;;;13.32;52.86;100322.00;4936011;28;121295;-62
2022/05/23 04:41:11;;;;;;;;;;;;;;;13.38;52.74;100322.78;4936383;28;99045;-67
2022/05/23 04:43:37;;;;;;;;;;;;;;;13.43;52.62;100323.50;4939622;28;110389;-68
2022/05/23 04:46:03;;;;;;;;;;;;;;;13.47;52.67;100316.41;4940561;28;126549;-67
2022/05/23 04:51:13;;;;;;;;;;;;;;;13.63;52.53;100310.81;4939896;28;99468;-62
2022/05/23 04:53:39;;;;;;;;;;;;;;;13.72;52.44;100309.88;4958167;28;127623;-67
2022/05/23 04:56:05;;;;;;;;;;;;;;;13.84;52.21;100305.94;4958620;28;127735;-62
2022/05/23 04:58:31;;;;;;;;;;;;;;;13.95;52.29;100297.38;4957911;28;119025;-68
2022/05/23 05:00:59;;;;;;;;;;;;;;;14.10;52.14;100292.81;4958394;28;128174;-61
2022/05/23 05:03:25;;;;;;;;;;;;;;;14.23;51.75;100292.88;4954050;28;118574;-69
2022/05/23 05:05:50;;;;;;;;;;;;;;;14.42;51.77;100295.56;4940217;28;126687;-62
2022/05/23 05:08:16;;;;;;;;;;;;;;;14.55;51.44;100288.56;4944986;28;97905;-68
2022/05/23 05:10:42;;;;;;;;;;;;;;;14.72;51.51;100288.00;4939392;28;110018;-69
2022/05/23 05:13:08;;;;;;;;;;;;;;;14.93;51.14;100281.09;4940237;28;101937;-62
2022/05/23 05:15:34;;;;;;;;;;;;;;;15.16;50.37;100278.47;4940608;28;101127;-62
2022/05/23 05:18:00;;;;;;;;;;;;;;;15.35;50.48;100270.22;4959241;28;122251;-62
2022/05/23 05:20:26;;;;;;;;;;;;;;;15.53;50.47;100268.50;4957758;28;128464;-62
2022/05/23 05:22:52;;;;;;;;;;;;;;;15.69;50.13;100264.38;4958267;28;108744;-67
2022/05/23 05:25:18;;;;;;;;;;;;;;;15.83;50.21;100251.53;4955942;28;125843;-62
2022/05/23 05:27:44;;;;;;;;;;;;;;;16.09;49.54;100249.00;4938500;28;97908;-62
2022/05/23 05:30:13;;;;;;;;;;;;;;;16.24;49.51;100241.59;4937792;28;128888;-62
2022/05/23 05:32:47;;;;;;;;;;;;;;;16.52;49.02;100240.31;4939637;28;98823;-67
2022/05/23 05:35:30;;;;;;;;;;;;;;;16.75;48.65;100238.38;4938618;28;98078;-67
2022/05/23 05:38:01;;;;;;;;;;;;;;;17.08;48.25;100233.34;4954675;28;97927;-62
2022/05/23 05:40:28;;;;;;;;;;;;;;;17.39;47.92;100235.19;4963061;28;125241;-69
2022/05/23 05:42:58;;;;;;;;;;;;;;;17.57;47.55;100231.38;4956257;28;99157;-68
2022/05/23 05:45:30;;;;;;;;;;;;;;;17.83;47.19;100220.50;4964377;28;97948;-62
2022/05/23 05:47:56;;;;;;;;;;;;;;;18.03;47.04;100224.47;4965098;28;97837;-68
2022/05/23 05:50:26;;;;;;;;;;;;;;;18.40;46.48;100228.44;4956840;28;126231;-69
2022/05/23 05:52:52;;;;;;;;;;;;;;;18.83;46.01;100232.97;4958746;28;98724;-67
2022/05/23 05:55:18;;;;;;;;;;;;;;;20.92;42.67;100220.25;4940563;28;98467;-69
2022/05/23 05:57:44;;;;;;;;;;;;;;;21.63;42.47;100216.97;4942730;28;118638;-62
2022/05/23 06:00:10;;;;;;;;;;;;;;;22.60;41.69;100230.59;4937868;28;126196;-69
2022/05/23 06:02:37;;;;;;;;;;;;;;;24.80;38.67;100219.09;4939905;28;99482;-62
2022/05/23 06:05:03;;;;;;;;;;;;;;;26.67;35.83;100230.16;4939121;28;97885;-67
2022/05/23 06:11:23;;;;;;;;;;;;;;;25.59;37.97;100221.88;4938063;28;98311;-69
2022/05/23 06:13:16;;;;;;;;;;;;;;;26.56;36.60;100217.44;4939024;28;98715;-61
2022/05/23 06:15:42;;;;;;;;;;;;;;;28.68;33.58;100217.25;4938702;28;98496;-62
2022/05/23 06:18:08;;;;;;;;;;;;;;;29.04;33.31;100229.13;4952707;28;98469;-69
2022/05/23 06:20:34;;;;;;;;;;;;;;;29.29;32.89;100223.56;4937637;28;125245;-69
2022/05/23 06:23:01;;;;;;;;;;;;;;;29.91;32.16;100216.56;4939460;28;98215;-62
2022/05/23 06:25:27;;;;;;;;;;;;;;;30.44;30.28;100212.72;4939342;28;97868;-62
2022/05/23 06:27:53;;;;;;;;;;;;;;;30.49;30.86;100212.28;4940066;28;122744;-67
2022/05/23 06:30:19;;;;;;;;;;;;;;;30.38;31.16;100204.03;4936810;28;98537;-62
2022/05/23 06:32:45;;;;;;;;;;;;;;;31.02;30.17;100197.13;4952745;28;127945;-62
2022/05/23 06:35:11;;;;;;;;;;;;;;;31.68;29.74;100190.44;4937778;28;122753;-69
2022/05/23 06:37:39;;;;;;;;;;;;;;;31.14;30.17;100182.69;4940232;28;105951;-67
2022/05/23 06:40:06;;;;;;;;;;;;;;;30.88;28.72;100183.34;4938878;28;126791;-62
2022/05/23 06:42:32;;;;;;;;;;;;;;;30.19;29.49;100174.00;4939068;28;104150;-67
2022/05/23 06:45:02;;;;;;;;;;;;;;;30.28;29.53;100165.97;4946821;28;128394;-67
2022/05/23 06:47:27;;;;;;;;;;;;;;;30.40;29.15;100165.47;4958737;28;114611;-62
2022/05/23 06:49:53;;;;;;;;;;;;;;;30.54;28.00;100153.47;4954290;28;127877;-69
2022/05/23 06:52:19;;;;;;;;;;;;;;;30.43;28.49;100153.56;4961592;28;111033;-62
2022/05/23 06:54:45;;;;;;;;;;;;;;;30.27;28.96;100150.50;4942854;28;127921;-61
2022/05/23 06:57:11;;;;;;;;;;;;;;;29.94;28.51;100154.66;4942134;28;122313;-62
2022/05/23 06:59:37;;;;;;;;;;;;;;;29.53;27.20;100146.94;4958040;28;98590;-68
2022/05/23 07:02:06;;;;;;;;;;;;;;;29.39;28.22;100147.00;4962217;28;99254;-62
2022/05/23 07:12:47;;;;;;;;;;;;;;;28.94;28.13;100147.50;4968365;28;98340;-69
2022/05/23 07:15:13;;;;;;;;;;;;;;;28.95;28.37;100143.53;4940527;28;126563;-61
2022/05/23 07:17:39;;;;;;;;;;;;;;;28.63;28.35;100138.06;4942345;28;98063;-68
2022/05/23 07:20:05;;;;;;;;;;;;;;;28.30;28.42;100144.78;4959805;28;128523;-68
2022/05/23 07:22:32;;;;;;;;;;;;;;;27.97;28.42;100145.91;4961596;28;99452;-62
2022/05/23 07:24:58;;;;;;;;;;;;;;;27.66;28.69;100157.28;4949835;28;98111;-69
2022/05/23 07:27:28;;;;;;;;;;;;;;;27.42;29.26;100147.69;4942555;28;98052;-68
2022/05/23 07:29:54;;;;;;;;;;;;;;;27.28;29.08;100147.66;4960282;28;108236;-61
2022/05/23 07:32:19;;;;;;;;;;;;;;;27.24;29.34;100149.63;4961466;28;100647;-69
2022/05/23 07:34:45;;;;;;;;;;;;;;;27.25;29.75;100148.44;4942462;28;126785;-62
2022/05/23 07:37:12;;;;;;;;;;;;;;;27.28;29.48;100144.88;4939360;28;97899;-69
2022/05/23 07:39:39;;;;;;;;;;;;;;;27.50;29.33;100142.97;4941132;28;98310;-67
2022/05/23 07:42:06;;;;;;;;;;;;;;;27.75;28.90;100154.19;4945209;28;99487;-62
2022/05/23 07:44:33;;;;;;;;;;;;;;;28.14;28.56;100145.16;4961130;28;98639;-69
2022/05/23 07:46:59;;;;;;;;;;;;;;;28.32;28.19;100147.94;4955836;28;121066;-62
2022/05/23 07:49:25;;;;;;;;;;;;;;;28.55;27.95;100134.50;4955030;28;128097;-61
2022/05/23 07:51:53;;;;;;;;;;;;;;;28.91;28.11;100142.75;4961248;28;98174;-69
2022/05/23 08:02:33;;;;;;;;;;;;;;;29.35;27.75;100131.13;4957996;28;98123;-67
2022/05/23 08:04:59;;;;;;;;;;;;;;;29.37;27.64;100118.88;4939590;28;98508;-68
2022/05/23 08:07:28;;;;;;;;;;;;;;;29.32;27.64;100111.75;4940622;28;122507;-61
2022/05/23 08:09:55;;;;;;;;;;;;;;;29.18;27.72;100120.13;4955255;28;98297;-61
2022/05/23 08:12:20;;;;;;;;;;;;;;;29.00;27.91;100109.06;4958039;28;98748;-62
2022/05/23 08:14:46;;;;;;;;;;;;;;;28.84;27.73;100106.72;4939881;28;127749;-68
2022/05/23 08:17:12;;;;;;;;;;;;;;;28.73;28.17;100109.53;4940562;28;122637;-69
2022/05/23 08:19:38;;;;;;;;;;;;;;;28.49;27.91;100094.53;4941269;28;126958;-62
2022/05/23 08:22:04;;;;;;;;;;;;;;;28.41;28.16;100090.16;4941155;28;98331;-62
2022/05/23 08:24:30;;;;;;;;;;;;;;;28.31;28.44;100090.94;4941068;28;112200;-69
2022/05/23 08:26:56;;;;;;;;;;;;;;;28.46;28.36;100089.78;4940595;28;121365;-61
2022/05/23 08:29:22;;;;;;;;;;;;;;;28.65;28.51;100084.97;4941958;28;100847;-62
2022/05/23 08:31:48;;;;;;;;;;;;;;;28.72;28.23;100091.28;4939309;28;128388;-61
2022/05/23 08:34:14;;;;;;;;;;;;;;;28.90;28.16;100071.84;4941020;28;98056;-61
2022/05/23 08:36:40;;;;;;;;;;;;;;;29.32;28.10;100084.78;4938906;28;122434;-61
2022/05/23 08:39:06;;;;;;;;;;;;;;;29.53;27.58;100074.78;4940054;28;128197;-62
2022/05/23 08:41:34;;;;;;;;;;;;;;;29.55;27.93;100080.69;4939588;28;126941;-66
2022/05/23 08:44:26;;;;;;;;;;;;;;;29.50;27.53;100081.13;4941251;28;98284;-62
2022/05/23 08:47:11;;;;;;;;;;;;;;;29.53;27.86;100077.53;4959529;28;97664;-62
2022/05/23 08:49:47;;;;;;;;;;;;;;;29.57;27.42;100062.47;4937767;28;98280;-62
2022/05/23 08:52:33;;;;;;;;;;;;;;;29.44;27.23;100055.78;4960388;28;99100;-62
2022/05/23 08:55:25;;;;;;;;;;;;;;;29.26;27.29;100044.00;4943379;28;100222;-61
2022/05/23 08:58:05;;;;;;;;;;;;;;;29.08;26.99;100052.38;4944198;28;98088;-61
2022/05/23 09:00:38;;;;;;;;;;;;;;;28.94;27.56;100052.44;4938098;28;98991;-68
2022/05/23 09:03:30;;;;;;;;;;;;;;;28.89;27.64;100034.22;4942978;28;98497;-61
2022/05/23 09:06:01;;;;;;;;;;;;;;;28.75;27.74;100032.28;4959786;28;98048;-61
2022/05/23 09:08:30;;;;;;;;;;;;;;;28.74;27.44;100027.94;4952665;28;98290;-62
2022/05/23 09:11:10;;;;;;;;;;;;;;;28.63;27.35;100022.41;4940516;28;98285;-61
2022/05/23 09:13:39;;;;;;;;;;;;;;;28.67;27.21;100027.94;4948156;28;117345;-61
2022/05/23 09:16:05;;;;;;;;;;;;;;;28.92;27.17;100033.41;4956715;28;127196;-68
2022/05/23 09:18:47;;;;;;;;;;;;;;;29.29;26.91;100029.31;4953896;28;97900;-68
2022/05/23 09:21:13;;;;;;;;;;;;;;;29.82;26.77;100023.41;4938134;28;98285;-62
2022/05/23 09:23:58;;;;;;;;;;;;;;;30.33;26.67;100029.34;4940271;28;127643;-61
2022/05/23 09:26:28;;;;;;;;;;;;;;;30.86;26.14;100036.34;4940072;28;97896;-62
2022/05/23 09:28:54;;;;;;;;;;;;;;;31.32;25.59;100025.84;4940730;28;122556;-62
2022/05/23 09:31:33;;;;;;;;;;;;;;;31.83;25.09;100019.09;4954158;28;99157;-62
2022/05/23 09:33:59;;;;;;;;;;;;;;;32.64;24.33;100020.91;4954512;28;98064;-61
2022/05/23 09:36:38;;;;;;;;;;;;;;;33.42;23.76;100018.47;4937523;28;98231;-69
2022/05/23 09:39:09;;;;;;;;;;;;;;;34.52;23.27;100019.78;4942857;28;98022;-69
2022/05/23 09:50:08;;;;;;;;;;;;;;;38.45;20.39;99998.16;4970753;28;97841;-68
2022/05/23 09:52:42;;;;;;;;;;;;;;;38.34;19.35;100000.66;4955766;28;99027;-62
2022/05/23 09:55:12;;;;;;;;;;;;;;;37.96;19.86;99979.34;4953737;28;98096;-67
2022/05/23 09:57:51;;;;;;;;;;;;;;;37.78;19.99;99980.09;4940307;28;98594;-63
2022/05/23 10:00:23;;;;;;;;;;;;;;;37.88;20.84;99975.28;4937286;28;122380;-62
2022/05/23 10:02:57;;;;;;;;;;;;;;;38.43;20.15;99986.56;4941954;28;98950;-69
2022/05/23 10:05:31;;;;;;;;;;;;;;;38.76;19.31;99978.22;4950550;28;97814;-68
2022/05/23 10:08:02;;;;;;;;;;;;;;;39.20;19.04;99962.94;4956568;28;105761;-62
2022/05/23 10:10:30;;;;;;;;;;;;;;;39.76;18.56;99959.34;4939439;28;105475;-68
2022/05/23 10:13:25;;;;;;;;;;;;;;;40.28;17.64;99967.56;4938703;28;126085;-68
2022/05/23 10:16:14;;;;;;;;;;;;;;;40.94;17.57;99955.91;4958874;28;98888;-67
2022/05/23 10:18:51;;;;;;;;;;;;;;;41.76;17.59;99946.84;4949384;28;97904;-68
2022/05/23 10:21:27;;;;;;;;;;;;;;;42.30;16.93;99931.03;4938610;28;98012;-63
2022/05/23 10:24:04;;;;;;;;;;;;;;;42.35;17.03;99927.47;4944042;28;98858;-62
2022/05/23 10:26:33;;;;;;;;;;;;;;;41.49;17.25;99912.06;4942126;28;98208;-68
2022/05/23 10:29:16;;;;;;;;;;;;;;;40.41;17.29;99893.94;4951287;28;98561;-62
2022/05/23 10:31:52;;;;;;;;;;;;;;;40.57;17.77;99893.47;4962615;28;104931;-68
2022/05/23 10:34:36;;;;;;;;;;;;;;;40.42;17.85;99896.25;4945466;28;98122;-63
2022/05/23 10:37:03;;;;;;;;;;;;;;;41.21;17.57;99889.06;4952183;28;98913;-68
2022/05/23 10:42:26;;;;;;;;;;;;;;;41.02;17.54;99870.81;4939630;28;97852;-68
2022/05/23 10:45:03;;;;;;;;;;;;;;;40.21;17.96;99861.53;4959210;28;124571;-62
2022/05/23 10:47:59;;;;;;;;;;;;;;;38.60;18.81;99849.13;4939634;28;98845;-62
2022/05/23 10:50:33;;;;;;;;;;;;;;;37.30;19.64;99849.66;4959641;28;98012;-68
2022/05/23 10:53:22;;;;;;;;;;;;;;;36.44;20.31;99846.66;4961884;28;97662;-68
2022/05/23 10:56:10;;;;;;;;;;;;;;;35.53;20.93;99834.31;4960489;28;113164;-69
2022/05/23 10:58:43;;;;;;;;;;;;;;;35.41;21.03;99837.88;4962171;28;98128;-68
2022/05/23 11:01:47;;;;;;;;;;;;;;;35.20;20.65;99841.41;4956472;28;98629;-63
2022/05/23 11:04:43;;;;;;;;;;;;;;;35.34;20.67;99838.94;4941700;28;97791;-62
2022/05/23 11:07:47;;;;;;;;;;;;;;;36.13;20.36;99839.00;4944670;28;98343;-62
2022/05/23 11:10:24;;;;;;;;;;;;;;;36.92;19.49;99838.75;4966758;28;98554;-63
2022/05/23 11:13:18;;;;;;;;;;;;;;;37.88;19.09;99840.34;4942134;28;98021;-68
2022/05/23 11:16:05;;;;;;;;;;;;;;;38.49;18.50;99834.78;4955765;28;98281;-62
2022/05/23 11:18:41;;;;;;;;;;;;;;;38.81;18.28;99840.94;4951273;28;98701;-64
2022/05/23 11:21:13;;;;;;;;;;;;;;;38.75;18.83;99829.50;4940760;28;98352;-63
2022/05/23 11:23:39;;;;;;;;;;;;;;;38.91;18.43;99820.69;4942928;28;98222;-68
2022/05/23 11:26:17;;;;;;;;;;;;;;;39.40;18.53;99813.03;4961301;28;98873;-63
2022/05/23 11:34:28;;;;;;;;;;;;;;;38.50;19.10;99797.72;4938720;28;97800;-68
2022/05/23 11:36:57;;;;;;;;;;;;;;;37.49;19.22;99792.25;4956306;28;98578;-68
2022/05/23 11:39:48;;;;;;;;;;;;;;;36.77;19.73;99777.59;4955623;28;98518;-70
2022/05/23 11:42:27;;;;;;;;;;;;;;;37.32;19.62;99777.69;4947616;28;98878;-69
2022/05/23 11:48:26;;;;;;;;;;;;;;;35.58;20.60;99763.69;4943663;28;98188;-69
2022/05/23 11:51:07;;;;;;;;;;;;;;;34.87;21.25;99766.88;4941225;28;98303;-63
2022/05/23 11:53:34;;;;;;;;;;;;;;;34.06;21.31;99757.00;4953888;28;98644;-68
2022/05/23 11:56:02;;;;;;;;;;;;;;;33.31;22.36;99761.06;4956804;28;98507;-69
2022/05/23 11:58:39;;;;;;;;;;;;;;;33.37;22.53;99756.53;4941500;28;97900;-68
2022/05/23 12:01:10;;;;;;;;;;;;;;;32.90;22.93;99751.34;4941014;28;98689;-69
2022/05/23 12:03:52;;;;;;;;;;;;;;;32.15;23.61;99741.91;4938797;28;101005;-63
2022/05/23 12:06:18;;;;;;;;;;;;;;;32.25;23.56;99733.28;4941865;28;98046;-69
2022/05/23 12:09:13;;;;;;;;;;;;;;;32.34;23.65;99737.47;4941380;28;97944;-63
2022/05/23 12:11:49;;;;;;;;;;;;;;;31.60;24.18;99729.47;4940805;28;99463;-69
2022/05/23 12:14:28;;;;;;;;;;;;;;;31.10;24.51;99733.97;4940509;28;98994;-69
2022/05/23 12:16:57;;;;;;;;;;;;;;;30.48;25.38;99736.13;4941354;28;98049;-63
2022/05/23 12:19:22;;;;;;;;;;;;;;;30.10;25.26;99732.66;4941461;28;97996;-62
2022/05/23 12:21:48;;;;;;;;;;;;;;;30.24;25.24;99737.28;4951308;28;99529;-62
2022/05/23 12:24:24;;;;;;;;;;;;;;;30.82;25.11;99734.47;4955308;28;99132;-68
2022/05/23 12:26:52;;;;;;;;;;;;;;;31.66;24.75;99733.34;4960688;28;99459;-68
2022/05/23 12:29:28;;;;;;;;;;;;;;;32.23;24.52;99738.53;4958094;28;112125;-62
2022/05/23 12:32:16;;;;;;;;;;;;;;;32.75;24.12;99734.16;4954938;28;98788;-63
2022/05/23 12:34:48;;;;;;;;;;;;;;;32.85;23.85;99723.94;4940685;28;98292;-63
2022/05/23 12:37:30;;;;;;;;;;;;;;;31.77;24.63;99731.91;4941510;28;98559;-62
2022/05/23 12:40:21;;;;;;;;;;;;;;;31.76;24.65;99727.56;4937665;28;98003;-67
2022/05/23 12:43:12;;;;;;;;;;;;;;;32.06;24.53;99720.19;4949946;28;122704;-62
2022/05/23 12:45:48;;;;;;;;;;;;;;;31.04;25.18;99724.53;4958003;28;125838;-62
2022/05/23 12:48:19;;;;;;;;;;;;;;;30.70;25.68;99725.47;4951002;28;98238;-63
2022/05/23 12:51:16;;;;;;;;;;;;;;;30.61;25.59;99719.63;4940079;28;98068;-69
2022/05/23 12:54:20;;;;;;;;;;;;;;;30.73;25.50;99721.88;4956736;28;123316;-63
2022/05/23 12:56:56;;;;;;;;;;;;;;;30.51;25.85;99732.50;4958408;28;99545;-62
2022/05/23 12:59:56;;;;;;;;;;;;;;;30.31;26.17;99721.28;4959379;28;100770;-63
2022/05/23 13:02:22;;;;;;;;;;;;;;;30.27;25.89;99722.56;4955361;28;97624;-69
2022/05/23 13:04:57;;;;;;;;;;;;;;;30.32;25.96;99725.66;4959805;28;98005;-68
2022/05/23 13:07:48;;;;;;;;;;;;;;;30.38;26.24;99731.53;4957366;28;126847;-69
2022/05/23 13:10:31;;;;;;;;;;;;;;;30.28;26.53;99722.13;4959289;28;97638;-68
2022/05/23 13:13:02;;;;;;;;;;;;;;;30.60;26.30;99725.63;4933306;28;97860;-68
2022/05/23 13:15:29;;;;;;;;;;;;;;;30.83;26.31;99733.25;4940026;28;97953;-63
2022/05/23 13:22:05;;;;;;;;;;;;;;;31.12;25.97;99742.66;4956751;28;98565;-69
2022/05/23 13:23:26;;;;;;;;;;;;;;;31.15;26.03;99716.78;4945698;28;97978;-69
2022/05/23 13:25:51;;;;;;;;;;;;;;;30.90;25.94;99716.44;4945384;28;126785;-65
2022/05/23 13:28:18;;;;;;;;;;;;;;;30.70;26.56;99705.22;4941871;28;116091;-72
2022/05/23 13:30:50;;;;;;;;;;;;;;;30.35;26.43;99710.13;4957087;28;98244;-65
2022/05/23 13:33:18;;;;;;;;;;;;;;;30.02;26.96;99711.75;4955265;28;97837;-72
2022/05/23 13:35:45;;;;;;;;;;;;;;;29.74;26.93;99710.91;4956914;28;98764;-65
2022/05/23 13:38:25;;;;;;;;;;;;;;;29.48;27.35;99711.63;4952736;28;98447;-65
2022/05/23 13:40:53;;;;;;;;;;;;;;;29.29;27.64;99713.78;4935531;28;98143;-65
2022/05/23 13:43:22;;;;;;;;;;;;;;;29.14;27.99;99719.88;4938154;28;97883;-72
2022/05/23 13:46:08;;;;;;;;;;;;;;;28.92;27.77;99716.47;4952316;28;99021;-65
2022/05/23 13:48:38;;;;;;;;;;;;;;;28.65;28.22;99721.84;4948053;28;98435;-65
2022/05/23 13:51:06;;;;;;;;;;;;;;;28.34;28.41;99711.34;4935336;28;120584;-71
2022/05/23 13:53:39;;;;;;;;;;;;;;;28.18;28.66;99710.25;4939635;28;109790;-65
2022/05/23 13:56:05;;;;;;;;;;;;;;;27.97;29.02;99700.09;4939358;28;98324;-65
2022/05/23 13:58:33;;;;;;;;;;;;;;;27.82;29.36;99702.91;4954519;28;99702;-65
2022/05/23 14:01:02;;;;;;;;;;;;;;;27.68;29.04;99689.13;4939694;28;123093;-72